South Haven, Michigan
Current Conditions -  °F | °C
As of 3:15 PM on Sunday 25 Jan 2015 (Local Time) from KLWA Reporting Station
Overcast Overcast  
Wind Chill: 17°   Ceiling: 4300
Heat Index: 26°   Visibility: 10mi
Dew Point: 15°   Wind: 10mph
Humidity: 63%   Direction: 60°ENE
Pressure: 29.85"   Gusts: 17mph
Location:  42.4°N, 86.27°W
Report Text: KLWA 252015Z AUTO 06009G15KT 10SM OVC043 M03/M09 A2985 RMK AO2 T10311092
Loading
Personal Weather Stations






























Interactive Weather Map New forecast layout! Learn more

10-Day Weather Forecast

Advertisements
Track Severe Weather on mobile